AirNav  
 
Fuel
  

PAHE Tahneta Pass Airport
Tahneta Pass Lodge, Alaska, USA


FAA INFORMATION EFFECTIVE 15 MAY 2003

Location

FAA Identifier: HNE
Lat/Long: 61-54-05.148N / 147-18-15.866W
61-54.08580N / 147-18.26443W
61.9014300 / -147.3044072
(estimated)
Elevation: 2960 ft. / 902 m (estimated)
Variation: 26E (1985)

Airport Operations

Airport use: Open to the public
Sectional chart: ANCHORAGE BUY IT NOW
Control tower: no
ARTCC: ANCHORAGE CENTER
FSS: KENAI FLIGHT SERVICE STATION [1-800-WX-BRIEF]
NOTAMs facility: SMU (NOTAM-D service available)
Attendance: UNATNDD
Wind indicator: no
Segmented circle: no
Beacon: unknown

Airport Communications

CTAF/UNICOM: 123.05
WX AWOS-3: 134.95 (907-822-3011)

Airport Services

Airframe service: NONE
Powerplant service: NONE
Bottled oxygen: NONE
Bulk oxygen: NONE

Runway Information

Runway 4W/22W

Dimensions: 7000 x 1000 ft. / 2134 x 305 m
Surface: water
RUNWAY 4W  RUNWAY 22W
Traffic pattern: leftleft
Markings: nonenone
Runway end identifier lights: nono

Runway 3/21

Dimensions: 1100 x 20 ft. / 335 x 6 m
Surface: gravel/dirt, in poor condition
HAS RUTS AND IS SOFT WHEN WET. THE EDGES ARE SOFT AND OVERGROWN WITH BRUSH.
Operational restrictions: NOT MAINTAINED.
RUNWAY 3  RUNWAY 21
Traffic pattern: leftleft
Markings: nonenone
Runway end identifier lights: nono
Obstructions: 20 ft. trees p lin, 80 ft. from runway, 80 ft. left of centerline, 4:1 slope to clear15 ft. pole bldg, 160 ft. from runway, 70 ft. left of centerline, 10:1 slope to clear

Airport Operational Statistics

Aircraft operations: 50/year
100% transient general aviation

Additional Remarks

RY SLOPES DOWN BOTH DIRECTIONS FROM HIGH POINT 400 FT FROM RY 03 THR. RY 03 DIFFERENCE OF 3 FT; RY 21 DIFFERENCE OF 9 FT.
(ARPT STATUS) ARPT CLSD INDEFLY.
 
Loc | Ops | Rwys | Biz | Links
Com | Nav | Svcs | Stats | Notes
 
Area around PAHE (Tahneta Pass Airport)
 
No photo
 
Sunrise and sunset
Times for 13-Jun-2003
 Local
(UTC-8)
 Zulu
(UTC)
Morning civil twilight++
Sunrise04:0312:03
Sunset23:3607:36
Evening civil twilight++
 
METAR
PAZK 131135Z AUTO 02006KT 10SM CLR 07/M03 A2954 RMK AO1
PASP 130150Z 06005KT 20SM SCT060 21/11 A2946 RMK EPO MAX TEMP 24.4 MIN TEMP -2.2 PRECIP TRACE

Businesses, Services and Facilities On or Near Tahneta Pass Airport

Business NameContactServicesComments
Add a business

Other Pages about Tahneta Pass Airport

www.alaska.faa.gov/...
Add a link
 
Copyright © AirNav, LLC. All rights reserved. Privacy Policy (Updated 24-May-2003)  Contact